Time;durP1;ratioP1;P1;durP2;ratioP2;P2;SDS_P1;SDS_P2;PMS_P1;PMS_P2;Temp;Humidity;BMP_temperature;BMP_pressure;BME280_temperature;BME280_humidity;BME280_pressure;Samples;Min_cycle;Max_cycle;Signal;HPM_P1;HPM_P2
2022/12/31 00:01:37;;;;;;;12.28;6.53;;;;;;;5.15;86.49;98666.63;1689539;83;21473;-87
2022/12/31 00:04:04;;;;;;;10.68;5.85;;;;;;;5.16;86.52;98665.71;1683245;83;21586;-87
2022/12/31 00:06:34;;;;;;;11.68;5.83;;;;;;;5.19;86.54;98669.08;1682528;84;21015;-87
2022/12/31 00:09:04;;;;;;;10.90;6.12;;;;;;;5.16;86.44;98663.12;1689093;83;21025;-87
2022/12/31 00:11:32;;;;;;;9.75;5.72;;;;;;;5.15;86.43;98665.76;1646422;85;21123;-87
2022/12/31 00:13:59;;;;;;;10.70;5.85;;;;;;;5.16;86.40;98663.12;1649908;85;21073;-88
2022/12/31 00:16:32;;;;;;;11.87;6.47;;;;;;;5.19;86.37;98658.73;1642236;85;21123;-87
2022/12/31 00:19:00;;;;;;;10.18;6.10;;;;;;;5.21;86.40;98669.84;1643378;85;21337;-87
2022/12/31 00:21:29;;;;;;;8.65;5.75;;;;;;;5.23;86.40;98658.97;1638792;85;21051;-87
2022/12/31 00:23:56;;;;;;;15.53;7.67;;;;;;;5.26;86.36;98657.55;1649585;84;21039;-87
2022/12/31 00:26:27;;;;;;;13.15;5.92;;;;;;;5.27;86.31;98661.84;1644737;84;21078;-87
2022/12/31 00:28:55;;;;;;;9.83;5.17;;;;;;;5.31;86.30;98653.02;1644826;85;20987;-87
2022/12/31 00:31:25;;;;;;;13.95;6.75;;;;;;;5.35;86.33;98663.19;1649940;85;21130;-87
2022/12/31 00:33:52;;;;;;;8.98;5.95;;;;;;;5.41;86.30;98661.25;1646363;85;21044;-87
2022/12/31 00:36:26;;;;;;;10.50;5.75;;;;;;;5.43;86.24;98678.37;1639102;85;20998;-86
2022/12/31 00:38:55;;;;;;;11.38;6.60;;;;;;;5.46;86.29;98678.27;1638722;85;21158;-86
2022/12/31 00:41:23;;;;;;;12.13;6.00;;;;;;;5.50;86.28;98678.50;1646330;85;21117;-88
2022/12/31 00:43:49;;;;;;;11.35;6.08;;;;;;;5.53;86.24;98674.48;1644842;85;20981;-87
2022/12/31 00:46:17;;;;;;;10.65;6.12;;;;;;;5.56;86.27;98676.94;1639330;85;21503;-86
2022/12/31 00:48:44;;;;;;;8.98;5.60;;;;;;;5.57;86.18;98668.28;1636846;84;21090;-87
2022/12/31 00:51:14;;;;;;;16.23;7.05;;;;;;;5.61;86.19;98667.23;1641399;84;21003;-87
2022/12/31 00:53:41;;;;;;;10.08;5.50;;;;;;;5.66;86.24;98666.17;1646781;85;21531;-87
2022/12/31 00:56:12;;;;;;;11.22;6.22;;;;;;;5.73;86.27;98665.00;1645655;85;21551;-87
2022/12/31 00:58:38;;;;;;;11.50;6.20;;;;;;;5.74;86.18;98651.13;1635279;85;21002;-88
2022/12/31 01:01:19;;;;;;;10.15;5.70;;;;;;;5.77;86.24;98638.05;1639922;85;21135;-86
2022/12/31 01:03:49;;;;;;;11.18;6.03;;;;;;;5.82;86.20;98638.25;1634437;84;20993;-88
2022/12/31 01:06:16;;;;;;;11.50;6.47;;;;;;;5.88;86.22;98646.20;1616274;85;21462;-87
2022/12/31 01:08:44;;;;;;;12.30;6.00;;;;;;;5.94;86.10;98630.41;1645452;85;21065;-87
2022/12/31 01:11:21;;;;;;;;;;;;;;;6.02;86.15;98641.26;1632223;85;21024;-88
2022/12/31 01:13:51;;;;;;;10.15;5.92;;;;;;;6.07;85.94;98636.31;1678522;84;20152;-88
2022/12/31 01:16:21;;;;;;;10.15;5.78;;;;;;;6.07;85.97;98633.72;1678487;84;21454;-89
2022/12/31 01:18:49;;;;;;;10.13;5.70;;;;;;;6.07;85.95;98632.42;1681336;84;21083;-87
2022/12/31 01:21:17;;;;;;;8.38;5.70;;;;;;;6.10;85.87;98625.80;1680777;84;20978;-88
2022/12/31 01:23:44;;;;;;;11.60;6.20;;;;;;;6.10;85.80;98612.38;1677749;84;21051;-89
2022/12/31 01:26:13;;;;;;;12.00;6.03;;;;;;;6.15;85.84;98625.13;1680264;84;21084;-89
2022/12/31 01:28:40;;;;;;;12.13;5.92;;;;;;;6.18;85.86;98632.76;1677767;84;21071;-88
2022/12/31 01:31:10;;;;;;;9.88;5.60;;;;;;;6.19;85.80;98620.17;1685297;84;20953;-89
2022/12/31 01:33:38;;;;;;;11.43;5.83;;;;;;;6.20;85.77;98612.80;1680341;84;21050;-89
2022/12/31 01:36:09;;;;;;;10.43;5.15;;;;;;;6.18;85.68;98618.50;1680525;84;21131;-88
2022/12/31 01:38:36;;;;;;;10.43;5.72;;;;;;;6.18;85.61;98623.69;1678918;84;21430;-87
2022/12/31 01:41:03;;;;;;;7.90;5.22;;;;;;;6.20;85.69;98612.80;1683367;84;21197;-89
2022/12/31 01:43:58;;;;;;;13.32;5.10;;;;;;;6.24;85.66;98598.77;1680971;84;21023;-89
2022/12/31 01:46:38;;;;;;;9.10;5.50;;;;;;;6.26;85.54;98599.55;1591528;88;20988;-89
2022/12/31 01:49:41;;;;;;;8.75;5.40;;;;;;;6.21;85.43;98584.66;1595030;88;21490;-89
2022/12/31 01:52:34;;;;;;;10.80;5.78;;;;;;;6.14;85.36;98593.20;1584417;88;21123;-88
2022/12/31 01:55:27;;;;;;;8.73;5.45;;;;;;;6.15;85.39;98609.12;1602226;88;21056;-87
2022/12/31 01:57:59;;;;;;;8.53;5.60;;;;;;;6.18;85.36;98617.21;1610829;87;20991;-88
2022/12/31 02:00:26;;;;;;;8.48;5.25;;;;;;;6.18;85.41;98617.21;1607364;88;20971;-88
2022/12/31 02:02:52;;;;;;;12.05;5.67;;;;;;;6.21;85.32;98618.36;1601383;88;20947;-87
2022/12/31 02:05:26;;;;;;;10.08;5.80;;;;;;;6.25;85.34;98628.98;1605537;88;21012;-88
2022/12/31 02:07:54;;;;;;;8.05;5.33;;;;;;;6.27;85.36;98612.88;1599773;88;21010;-88
2022/12/31 02:10:20;;;;;;;9.08;5.60;;;;;;;6.33;85.46;98600.95;1605203;88;20989;-88
2022/12/31 02:12:47;;;;;;;11.08;5.75;;;;;;;6.36;85.39;98603.39;1603995;88;20986;-87
2022/12/31 02:15:14;;;;;;;7.90;5.30;;;;;;;6.39;85.26;98590.73;1603118;88;21107;-88
2022/12/31 02:18:04;;;;;;;11.15;5.97;;;;;;;6.40;85.30;98597.13;1606372;87;20966;-88
2022/12/31 02:21:08;;;;;;;11.10;6.70;;;;;;;6.42;85.27;98590.13;1603499;88;21021;-89
2022/12/31 02:23:55;;;;;;;11.25;5.42;;;;;;;6.44;85.19;98590.03;1608831;87;21064;-87
2022/12/31 02:26:52;;;;;;;9.20;6.08;;;;;;;6.45;85.17;98583.95;1598164;87;21029;-87
2022/12/31 02:29:51;;;;;;;8.28;5.25;;;;;;;6.49;85.25;98586.30;1614578;87;21034;-89
2022/12/31 02:32:42;;;;;;;10.78;5.90;;;;;;;6.52;85.21;98600.05;1614801;87;21050;-89
2022/12/31 02:35:20;;;;;;;9.13;6.20;;;;;;;6.55;85.22;98592.94;1614015;87;21061;-89
2022/12/31 02:37:52;;;;;;;10.53;6.05;;;;;;;6.60;85.15;98592.73;1617498;87;21499;-89
2022/12/31 02:40:21;;;;;;;11.65;5.58;;;;;;;6.64;85.20;98602.05;1619007;87;21007;-88
2022/12/31 02:42:47;;;;;;;9.65;5.30;;;;;;;6.64;85.12;98597.70;1652824;85;21447;-88
2022/12/31 02:45:19;;;;;;;10.75;6.12;;;;;;;6.64;85.14;98604.66;1671909;84;21605;-88
2022/12/31 02:48:05;;;;;;;7.80;5.25;;;;;;;6.67;85.16;98607.09;1667704;83;20941;-88
2022/12/31 02:50:55;;;;;;;8.93;5.57;;;;;;;6.70;85.11;98609.53;1657972;84;21015;-87
2022/12/31 02:53:52;;;;;;;9.08;5.40;;;;;;;6.72;85.07;98594.70;1686067;84;21593;-87
2022/12/31 02:56:27;;;;;;;8.00;5.17;;;;;;;6.72;85.06;98592.11;1653094;85;21012;-88
2022/12/31 03:02:12;;;;;;;9.48;5.60;;;;;;;6.72;85.09;98592.11;1689349;83;21006;-88
2022/12/31 03:04:50;;;;;;;8.78;5.58;;;;;;;6.74;85.14;98601.97;1686655;83;20980;-89
2022/12/31 03:07:24;;;;;;;9.85;5.67;;;;;;;6.71;84.94;98595.63;1654474;85;21934;-88
2022/12/31 03:09:51;;;;;;;8.18;4.65;;;;;;;6.68;85.10;98602.27;1685259;84;21439;-88
2022/12/31 03:15:18;;;;;;;11.68;5.45;;;;;;;6.69;85.19;98604.80;1687030;83;22724;-88
2022/12/31 03:17:36;;;;;;;10.63;5.37;;;;;;;6.65;85.05;98603.72;1688133;83;20971;-89
2022/12/31 03:22:55;;;;;;;9.43;5.78;;;;;;;6.61;85.12;98594.39;1685048;83;21655;-89
2022/12/31 03:25:36;;;;;;;9.33;5.80;;;;;;;6.59;85.20;98601.44;1681315;84;21468;-88
2022/12/31 03:28:09;;;;;;;8.33;5.40;;;;;;;6.58;85.20;98601.90;1690551;83;21042;-88
2022/12/31 03:30:38;;;;;;;8.58;5.28;;;;;;;6.54;85.25;98630.17;1685635;83;21013;-89
2022/12/31 03:33:06;;;;;;;8.83;5.30;;;;;;;6.59;85.43;98607.92;1685940;82;21015;-88
2022/12/31 03:35:36;;;;;;;7.78;5.40;;;;;;;6.56;85.26;98640.49;1688790;84;21481;-89
2022/12/31 03:38:03;;;;;;;8.10;5.10;;;;;;;6.54;85.32;98642.31;1686393;83;21081;-88
2022/12/31 03:40:33;;;;;;;8.48;5.45;;;;;;;6.53;85.37;98644.06;1686508;83;21076;-89
2022/12/31 03:42:59;;;;;;;7.47;4.70;;;;;;;6.50;85.29;98632.09;1687824;83;21022;-88
2022/12/31 03:45:26;;;;;;;6.30;4.72;;;;;;;6.49;85.46;98631.69;1691753;83;20967;-89
2022/12/31 03:48:03;;;;;;;6.70;4.12;;;;;;;6.48;85.57;98630.02;1653321;86;21014;-88
2022/12/31 03:50:32;;;;;;;10.80;4.90;;;;;;;6.50;85.61;98626.06;1636614;84;21022;-87
2022/12/31 03:53:00;;;;;;;6.00;4.25;;;;;;;6.50;85.58;98634.68;1642755;85;21459;-88
2022/12/31 03:55:27;;;;;;;9.05;5.03;;;;;;;6.51;85.77;98639.41;1643182;85;20976;-86
2022/12/31 03:57:53;;;;;;;8.10;4.70;;;;;;;6.57;85.96;98646.05;1644528;86;20952;-87
2022/12/31 04:00:21;;;;;;;6.22;4.70;;;;;;;6.58;85.80;98639.94;1650737;85;20977;-89
2022/12/31 04:02:49;;;;;;;7.30;4.50;;;;;;;6.59;85.87;98631.27;1648739;85;21531;-86
2022/12/31 04:05:17;;;;;;;5.37;3.55;;;;;;;6.61;86.05;98635.89;1646874;85;21103;-89
2022/12/31 04:07:44;;;;;;;8.63;4.47;;;;;;;6.62;86.00;98632.41;1645326;85;21064;-88
2022/12/31 04:10:14;;;;;;;6.40;4.83;;;;;;;6.60;85.98;98623.85;1646849;85;21070;-88
2022/12/31 04:12:41;;;;;;;5.95;4.58;;;;;;;6.62;86.13;98636.30;1644224;85;20937;-89
2022/12/31 04:15:10;;;;;;;8.85;4.90;;;;;;;6.64;86.10;98640.97;1631212;86;21443;-86
2022/12/31 04:17:36;;;;;;;6.10;3.40;;;;;;;6.65;86.31;98634.85;1646349;85;20964;-88
2022/12/31 04:20:04;;;;;;;7.20;4.30;;;;;;;6.67;86.25;98640.34;1645656;85;21122;-88
2022/12/31 04:22:30;;;;;;;6.10;3.62;;;;;;;6.67;86.30;98641.64;1649341;85;21025;-89
2022/12/31 04:24:57;;;;;;;8.05;4.10;;;;;;;6.69;86.32;98634.64;1647173;85;20972;-89
2022/12/31 04:27:24;;;;;;;8.53;3.90;;;;;;;6.71;86.52;98624.17;1703893;82;21078;-91
2022/12/31 04:29:50;;;;;;;7.58;4.25;;;;;;;6.76;86.73;98635.16;1700557;83;21069;-89
2022/12/31 04:32:17;;;;;;;5.30;3.65;;;;;;;6.78;86.45;98626.86;1699321;83;21013;-90
2022/12/31 04:34:43;;;;;;;5.00;4.17;;;;;;;6.78;86.70;98640.27;1701154;83;20955;-90
2022/12/31 04:37:10;;;;;;;6.85;4.22;;;;;;;6.84;86.96;98639.52;1660046;84;21478;-90
2022/12/31 04:39:36;;;;;;;6.70;4.33;;;;;;;6.90;87.04;98632.73;1661832;85;20946;-87
2022/12/31 04:42:03;;;;;;;5.50;3.87;;;;;;;6.94;86.91;98655.00;1662063;84;20979;-86
2022/12/31 04:44:34;;;;;;;6.03;3.97;;;;;;;7.01;87.13;98654.72;1647989;85;21472;-86
2022/12/31 04:47:01;;;;;;;5.78;3.90;;;;;;;7.03;86.94;98658.06;1647067;85;20934;-87
2022/12/31 04:49:28;;;;;;;4.40;3.57;;;;;;;7.03;87.03;98660.66;1648644;85;21060;-86
2022/12/31 04:51:54;;;;;;;5.00;4.10;;;;;;;7.00;87.09;98669.89;1651872;85;21092;-86
2022/12/31 04:54:23;;;;;;;8.83;4.10;;;;;;;7.04;87.35;98672.73;1626263;85;21111;-87
2022/12/31 04:56:50;;;;;;;7.05;4.25;;;;;;;7.09;87.45;98678.08;1628983;86;21099;-86
2022/12/31 04:59:17;;;;;;;6.60;4.47;;;;;;;7.12;87.51;98687.47;1697938;83;21014;-88
2022/12/31 05:01:43;;;;;;;4.47;3.95;;;;;;;7.14;87.39;98679.12;1695415;83;21010;-87
2022/12/31 05:04:10;;;;;;;5.60;4.13;;;;;;;7.16;87.38;98680.73;1697170;83;20973;-86
2022/12/31 05:06:36;;;;;;;4.03;3.52;;;;;;;7.15;87.43;98674.34;1696732;83;21505;-88
2022/12/31 05:09:03;;;;;;;5.83;3.47;;;;;;;7.17;87.62;98658.23;1696898;83;21541;-88
2022/12/31 05:11:30;;;;;;;7.97;4.50;;;;;;;7.21;87.59;98666.70;1696795;83;21540;-89
2022/12/31 05:14:01;;;;;;;4.87;4.10;;;;;;;7.19;87.57;98656.38;1695729;82;21041;-90
2022/12/31 05:16:28;;;;;;;8.03;4.30;;;;;;;7.18;87.62;98660.73;1693449;83;21418;-89
2022/12/31 05:18:54;;;;;;;6.28;3.83;;;;;;;7.20;87.67;98665.87;1665044;83;20989;-87
2022/12/31 05:21:23;;;;;;;6.40;4.33;;;;;;;7.20;87.76;98663.27;1696743;83;21053;-87
2022/12/31 05:23:49;;;;;;;4.05;3.50;;;;;;;7.23;87.92;98657.92;1672852;83;21430;-87
2022/12/31 05:26:16;;;;;;;9.30;5.67;;;;;;;7.27;87.98;98659.43;1696244;83;21475;-87
2022/12/31 05:28:43;;;;;;;7.13;4.60;;;;;;;7.30;88.04;98648.89;1664779;83;20920;-88
2022/12/31 05:31:09;;;;;;;5.20;3.75;;;;;;;7.35;88.09;98644.30;1697521;83;21034;-88
2022/12/31 05:33:36;;;;;;;6.00;3.72;;;;;;;7.36;87.98;98657.66;1695456;83;21014;-89
2022/12/31 05:36:03;;;;;;;6.22;3.60;;;;;;;7.36;88.18;98649.86;1694707;83;21225;-87
2022/12/31 05:38:30;;;;;;;4.45;3.52;;;;;;;7.44;88.35;98655.14;1699734;83;21555;-87
2022/12/31 05:41:04;;;;;;;5.40;3.92;;;;;;;7.45;88.17;98646.42;1697626;83;20984;-88
2022/12/31 05:43:32;;;;;;;6.30;4.22;;;;;;;7.44;88.23;98652.08;1700331;83;21053;-87
2022/12/31 05:46:03;;;;;;;3.52;3.20;;;;;;;7.45;88.28;98659.41;1697478;83;21033;-87
2022/12/31 05:48:30;;;;;;;4.90;3.85;;;;;;;7.48;88.31;98654.05;1694258;83;21042;-88
2022/12/31 05:50:57;;;;;;;3.90;3.42;;;;;;;7.45;88.31;98651.18;1703257;83;21000;-87
2022/12/31 05:53:24;;;;;;;5.40;3.80;;;;;;;7.45;88.44;98664.59;1707449;83;20979;-88
2022/12/31 05:55:51;;;;;;;5.97;3.20;;;;;;;7.46;88.52;98653.31;1707836;83;21018;-88
2022/12/31 05:58:17;;;;;;;6.10;3.77;;;;;;;7.51;88.72;98646.13;1707930;83;20965;-88
2022/12/31 06:00:46;;;;;;;5.97;3.60;;;;;;;7.51;88.61;98646.95;1708602;83;21016;-86
2022/12/31 06:03:16;;;;;;;5.00;3.90;;;;;;;7.53;88.78;98663.28;1682456;83;20946;-85
2022/12/31 06:05:47;;;;;;;5.95;4.10;;;;;;;7.55;88.80;98658.02;1711589;83;20957;-87
2022/12/31 06:08:14;;;;;;;5.67;3.55;;;;;;;7.42;89.03;98641.38;1708402;83;20986;-89
2022/12/31 06:10:40;;;;;;;5.42;3.62;;;;;;;7.52;89.01;98640.84;1710695;83;21029;-89
2022/12/31 06:13:07;;;;;;;5.12;3.75;;;;;;;7.57;89.07;98653.13;1709004;83;20994;-89
2022/12/31 06:15:38;;;;;;;7.30;5.10;;;;;;;7.63;89.07;98654.56;1674566;83;21456;-87
2022/12/31 06:18:05;;;;;;;4.15;3.17;;;;;;;7.65;89.30;98641.05;1708614;83;21481;-86
2022/12/31 06:20:32;;;;;;;4.60;3.42;;;;;;;7.70;89.10;98655.94;1706543;83;20979;-88
2022/12/31 06:22:58;;;;;;;4.47;3.75;;;;;;;7.75;89.28;98673.40;1706874;82;20953;-90
2022/12/31 06:25:25;;;;;;;4.40;3.60;;;;;;;7.75;89.16;98663.00;1707140;83;20986;-86
2022/12/31 06:27:52;;;;;;;4.87;3.60;;;;;;;7.79;89.30;98669.73;1705887;83;21006;-87
2022/12/31 06:30:18;;;;;;;5.85;3.77;;;;;;;7.81;89.28;98665.30;1707211;83;22542;-90
2022/12/31 06:32:45;;;;;;;7.53;3.05;;;;;;;7.82;89.25;98668.74;1706691;83;21508;-90
2022/12/31 06:35:12;;;;;;;6.42;3.70;;;;;;;7.82;89.33;98674.77;1707002;83;20990;-89
2022/12/31 06:37:38;;;;;;;4.87;3.22;;;;;;;7.82;89.34;98672.17;1708268;83;20966;-86
2022/12/31 06:40:07;;;;;;;4.65;3.45;;;;;;;7.83;89.36;98671.24;1711364;83;20973;-90
2022/12/31 06:42:36;;;;;;;6.87;3.90;;;;;;;7.84;89.47;98678.57;1689710;82;21070;-90
2022/12/31 06:45:03;;;;;;;5.33;3.70;;;;;;;7.85;89.55;98679.80;1661148;85;20966;-89
2022/12/31 06:47:30;;;;;;;5.33;3.70;;;;;;;7.85;89.57;98685.00;1665796;84;21532;-90
2022/12/31 06:49:56;;;;;;;5.07;3.70;;;;;;;7.84;89.70;98688.97;1656888;84;21493;-89
2022/12/31 06:52:23;;;;;;;5.85;3.87;;;;;;;7.89;89.79;98681.77;1653434;85;21026;-89
2022/12/31 06:54:50;;;;;;;5.43;3.90;;;;;;;7.94;89.81;98682.84;1658898;84;21080;-89
2022/12/31 06:57:20;;;;;;;4.92;3.42;;;;;;;7.95;89.75;98680.61;1660787;84;21005;-89
2022/12/31 06:59:48;;;;;;;4.00;3.35;;;;;;;7.97;89.85;98683.97;1650716;85;20970;-87
2022/12/31 07:02:47;;;;;;;4.08;3.67;;;;;;;7.98;89.86;98690.41;1653088;84;21524;-90
2022/12/31 07:05:35;;;;;;;4.70;3.55;;;;;;;8.00;89.96;98691.61;1650658;85;21033;-86
2022/12/31 07:08:42;;;;;;;6.08;3.60;;;;;;;8.02;90.01;98704.07;1625442;86;21027;-88
2022/12/31 07:11:55;;;;;;;6.00;3.27;;;;;;;8.00;90.22;98712.41;1628167;86;21016;-88
2022/12/31 07:14:49;;;;;;;;;;;;;;;;;;;;;
2022/12/31 07:18:40;;;;;;;4.33;3.70;;;;;;;8.08;90.40;98707.17;1532941;91;21102;-91
2022/12/31 07:20:36;;;;;;;5.12;4.20;;;;;;;8.14;90.53;98702.57;1497811;92;21503;-94
2022/12/31 07:23:03;;;;;;;5.57;3.40;;;;;;;8.15;90.27;98713.34;1527312;91;21046;-89
2022/12/31 07:25:30;;;;;;;3.87;3.20;;;;;;;8.15;90.36;98731.11;1526948;92;21092;-91
2022/12/31 07:28:23;;;;;;;5.37;2.98;;;;;;;8.15;90.37;98732.41;1524913;92;21787;-96
2022/12/31 07:31:22;;;;;;;;;;;;;;;;;;;;;
2022/12/31 07:33:56;;;;;;;3.12;2.80;;;;;;;8.21;90.64;98741.17;1444995;97;21075;-94
2022/12/31 07:36:49;;;;;;;5.00;3.17;;;;;;;8.26;90.72;98748.28;1447235;97;21626;-94
2022/12/31 07:39:39;;;;;;;5.10;2.98;;;;;;;8.35;90.74;98744.81;1445034;97;21081;-90
2022/12/31 07:42:19;;;;;;;4.62;3.10;;;;;;;8.39;90.68;98734.63;1446757;98;21086;-92
2022/12/31 07:45:16;;;;;;;6.75;3.10;;;;;;;8.42;90.76;98732.70;1450675;95;21073;-92
2022/12/31 07:47:43;;;;;;;5.47;3.50;;;;;;;8.47;90.80;98738.97;1458342;96;21060;-92
2022/12/31 07:50:17;;;;;;;3.37;2.60;;;;;;;8.51;90.72;98732.66;1432790;97;21031;-88
2022/12/31 07:52:46;;;;;;;3.95;3.10;;;;;;;8.58;90.86;98726.20;1431823;99;21079;-91
2022/12/31 07:55:13;;;;;;;4.03;2.87;;;;;;;8.59;90.94;98725.27;1445603;98;21018;-92
2022/12/31 07:57:56;;;;;;;3.30;3.00;;;;;;;8.71;91.05;98732.42;1508708;92;21613;-91
2022/12/31 08:00:29;;;;;;;4.17;3.00;;;;;;;8.74;90.85;98729.64;1513933;90;21021;-93
2022/12/31 08:03:13;;;;;;;3.37;2.55;;;;;;;8.76;90.99;98730.02;1518370;91;21504;-91
2022/12/31 08:06:00;;;;;;;3.85;2.62;;;;;;;8.79;90.97;98734.58;1515997;91;21020;-91
2022/12/31 08:08:44;;;;;;;4.12;2.75;;;;;;;8.73;91.01;98733.16;1602320;85;21038;-92
2022/12/31 08:11:31;;;;;;;5.12;3.17;;;;;;;8.77;90.92;98730.41;1637043;85;21080;-91
2022/12/31 08:14:01;;;;;;;4.25;2.90;;;;;;;8.80;90.98;98732.84;1640838;84;21062;-90
2022/12/31 08:16:31;;;;;;;4.53;2.52;;;;;;;8.77;90.87;98748.63;1636422;85;21041;-90
2022/12/31 08:19:00;;;;;;;3.52;3.00;;;;;;;8.74;91.08;98753.07;1632291;84;21002;-92
2022/12/31 08:21:32;;;;;;;5.85;2.95;;;;;;;8.80;91.15;98756.27;1639960;85;21106;-92
2022/12/31 08:24:21;;;;;;;7.42;3.35;;;;;;;8.87;91.28;98754.98;1632158;85;20974;-91
2022/12/31 08:27:02;;;;;;;6.15;3.30;;;;;;;8.90;91.04;98754.81;1639502;85;21129;-92
2022/12/31 08:29:43;;;;;;;4.58;3.40;;;;;;;8.95;91.22;98758.00;1632943;85;21002;-89
2022/12/31 08:32:24;;;;;;;5.12;2.70;;;;;;;8.97;91.15;98761.36;1635957;85;21172;-96
2022/12/31 08:35:23;;;;;;;3.98;3.20;;;;;;;9.03;91.29;98761.02;1652240;84;21519;-95
2022/12/31 08:38:19;;;;;;;2.83;2.45;;;;;;;9.04;91.11;98757.47;1649256;84;21464;-89
2022/12/31 08:41:28;;;;;;;3.83;3.00;;;;;;;9.13;91.20;98769.13;1646968;84;21020;-89
2022/12/31 08:44:28;;;;;;;3.90;3.08;;;;;;;9.12;91.20;98765.70;1642825;85;21000;-89
2022/12/31 08:47:24;;;;;;;5.85;2.80;;;;;;;9.17;91.11;98766.28;1645791;85;21624;-89
2022/12/31 08:49:51;;;;;;;4.77;2.90;;;;;;;9.16;91.12;98760.70;1620148;86;21067;-92
2022/12/31 08:52:24;;;;;;;5.42;3.50;;;;;;;9.09;91.12;98745.04;1597402;88;21017;-92
2022/12/31 08:54:51;;;;;;;4.80;3.12;;;;;;;9.08;91.26;98738.16;1652038;85;21055;-91
2022/12/31 08:57:39;;;;;;;3.95;2.90;;;;;;;9.13;91.48;98743.95;1651629;85;21028;-95
2022/12/31 09:00:13;;;;;;;3.22;2.83;;;;;;;9.22;91.58;98749.57;1648753;85;21589;-90
2022/12/31 09:03:09;;;;;;;5.67;3.80;;;;;;;9.27;91.50;98741.00;1651271;84;21021;-88
2022/12/31 09:05:59;;;;;;;5.03;3.62;;;;;;;9.31;91.40;98738.61;1649544;85;21492;-91
2022/12/31 09:08:34;;;;;;;4.85;3.77;;;;;;;9.35;91.63;98738.80;1656331;85;21096;-89
2022/12/31 09:11:15;;;;;;;4.55;3.20;;;;;;;9.45;91.68;98746.47;1623282;86;22086;-90
2022/12/31 09:13:56;;;;;;;3.65;2.75;;;;;;;9.52;91.64;98750.41;1630978;87;21089;-87
2022/12/31 09:16:52;;;;;;;4.75;3.50;;;;;;;9.52;91.58;98729.56;1629620;86;21042;-93
2022/12/31 09:19:21;;;;;;;3.92;2.87;;;;;;;9.57;91.53;98736.61;1624630;86;21030;-95
2022/12/31 09:22:02;;;;;;;3.80;2.95;;;;;;;9.60;91.57;98737.73;1625502;86;21148;-87
2022/12/31 09:24:28;;;;;;;3.87;2.37;;;;;;;9.63;91.74;98729.77;1623594;86;21133;-94
2022/12/31 09:27:23;;;;;;;5.75;2.70;;;;;;;9.62;91.47;98730.67;1626220;86;21042;-89
2022/12/31 09:30:07;;;;;;;3.83;2.72;;;;;;;9.64;91.67;98714.95;1628646;86;20963;-92
2022/12/31 09:32:42;;;;;;;5.20;3.05;;;;;;;9.68;91.74;98714.30;1601412;87;21059;-92
2022/12/31 09:35:56;;;;;;;4.70;2.87;;;;;;;9.78;91.84;98706.31;1627988;86;21062;-91
2022/12/31 09:39:00;;;;;;;4.20;3.30;;;;;;;9.89;92.01;98707.81;1626908;85;20947;-95
2022/12/31 09:41:52;;;;;;;4.22;2.92;;;;;;;9.95;91.69;98713.95;1624091;87;21030;-90
2022/12/31 09:44:48;;;;;;;3.42;2.70;;;;;;;9.95;91.69;98695.70;1606147;87;21091;-92
2022/12/31 09:47:38;;;;;;;3.95;2.50;;;;;;;9.96;91.59;98689.54;1604201;85;22253;-91
2022/12/31 09:51:03;;;;;;;4.58;2.65;;;;;;;10.04;91.92;98682.09;1617291;87;21587;-92
2022/12/31 09:54:06;;;;;;;4.42;2.50;;;;;;;10.09;91.98;98677.43;1622652;86;20997;-88
2022/12/31 09:56:40;;;;;;;6.22;2.40;;;;;;;10.15;91.83;98680.59;1561310;89;21516;-90
2022/12/31 09:59:40;;;;;;;3.65;2.10;;;;;;;10.19;91.95;98677.68;1560949;89;21006;-82
2022/12/31 10:02:48;;;;;;;4.78;2.77;;;;;;;10.23;91.96;98671.83;1561541;89;21078;-84
2022/12/31 10:05:46;;;;;;;3.50;2.60;;;;;;;10.21;91.65;98674.98;1564404;89;21392;-86
2022/12/31 10:08:36;;;;;;;3.12;2.30;;;;;;;10.14;91.66;98668.47;1561398;89;21544;-86
2022/12/31 10:11:14;;;;;;;4.00;2.20;;;;;;;10.09;91.45;98658.34;1563096;89;21001;-89
2022/12/31 10:13:50;;;;;;;4.20;2.47;;;;;;;10.05;91.54;98658.14;1562091;90;21006;-88
2022/12/31 10:17:13;;;;;;;3.17;2.17;;;;;;;9.99;91.64;98644.19;1560146;89;21041;-86
2022/12/31 10:19:51;;;;;;;4.40;3.08;;;;;;;9.96;91.57;98650.42;1558445;89;21085;-87
2022/12/31 10:22:54;;;;;;;4.17;2.40;;;;;;;9.93;91.88;98661.05;1561402;89;21070;-90
2022/12/31 10:26:16;;;;;;;3.37;2.80;;;;;;;9.96;91.86;98666.06;1563019;89;21009;-89
2022/12/31 10:28:51;;;;;;;3.60;2.90;;;;;;;9.88;91.73;98662.26;1593620;88;21037;-88
2022/12/31 10:31:34;;;;;;;3.42;2.50;;;;;;;9.88;91.86;98660.95;1598513;88;21085;-87
2022/12/31 10:34:44;;;;;;;2.85;2.37;;;;;;;9.90;91.79;98657.33;1621267;86;21710;-86
2022/12/31 10:37:18;;;;;;;3.42;2.60;;;;;;;9.86;91.76;98648.86;1629996;86;20960;-88
2022/12/31 10:40:08;;;;;;;4.70;2.50;;;;;;;9.81;91.70;98641.78;1634176;86;21489;-91
2022/12/31 10:43:04;;;;;;;4.55;2.45;;;;;;;9.80;91.90;98652.30;1619640;87;21030;-86
2022/12/31 10:45:57;;;;;;;2.90;2.37;;;;;;;9.90;91.90;98650.81;1632439;86;21533;-89
2022/12/31 10:48:57;;;;;;;3.87;3.22;;;;;;;9.83;91.71;98637.77;1635315;86;21034;-92
2022/12/31 10:51:49;;;;;;;3.77;3.05;;;;;;;9.84;91.96;98635.55;1634050;86;21075;-88
2022/12/31 10:54:56;;;;;;;3.65;2.98;;;;;;;9.85;92.10;98630.69;1632509;85;21497;-89
2022/12/31 10:58:07;;;;;;;2.77;2.30;;;;;;;9.89;92.02;98623.07;1585242;88;21076;-86
2022/12/31 11:00:50;;;;;;;3.08;2.50;;;;;;;9.91;91.89;98621.19;1580193;89;21087;-86
2022/12/31 11:03:41;;;;;;;2.60;2.10;;;;;;;9.91;91.93;98612.06;1579431;88;21051;-87
2022/12/31 11:06:46;;;;;;;3.70;2.52;;;;;;;9.92;91.85;98600.72;1582767;88;21068;-87
2022/12/31 11:09:46;;;;;;;5.03;2.50;;;;;;;9.99;92.15;98595.47;1580742;89;21116;-90
2022/12/31 11:12:44;;;;;;;2.60;2.20;;;;;;;9.96;91.98;98593.05;1505568;94;21123;-87
2022/12/31 11:15:37;;;;;;;4.70;2.33;;;;;;;9.96;92.08;98595.66;1498674;94;21569;-92
2022/12/31 11:18:18;;;;;;;3.25;2.87;;;;;;;10.01;92.15;98590.17;1498833;92;21024;-86
2022/12/31 11:24:04;;;;;;;;;;;;;;;10.05;92.23;98572.94;1478258;95;21052;-88
2022/12/31 11:27:16;;;;;;;3.15;2.00;;;;;;;10.12;92.22;98564.72;1473570;94;20184;-91
2022/12/31 11:30:17;;;;;;;3.80;2.12;;;;;;;10.17;92.21;98563.97;1479649;95;21064;-96
2022/12/31 11:33:17;;;;;;;3.25;2.60;;;;;;;10.11;91.89;98570.85;1478331;95;21093;-90
2022/12/31 11:36:01;;;;;;;4.87;2.98;;;;;;;10.08;91.87;98554.93;1526003;92;21032;-95
2022/12/31 11:38:39;;;;;;;3.65;2.67;;;;;;;10.05;91.79;98558.59;1524565;92;21085;-90
2022/12/31 11:41:31;;;;;;;;;;;;;;;10.02;91.71;98540.98;1523032;92;21137;-94
2022/12/31 11:44:52;;;;;;;3.98;2.72;;;;;;;10.02;92.05;98524.86;1485198;94;20576;-93
2022/12/31 11:47:30;;;;;;;3.95;3.12;;;;;;;10.03;92.26;98520.03;1476607;95;21568;-90
2022/12/31 11:50:38;;;;;;;3.08;2.60;;;;;;;10.14;92.09;98510.22;1513799;93;21025;-95
2022/12/31 11:53:50;;;;;;;4.80;3.15;;;;;;;10.19;92.03;98507.30;1509475;93;21104;-95
2022/12/31 11:56:22;;;;;;;4.67;2.45;;;;;;;10.20;91.88;98499.86;1511722;93;20999;-88
2022/12/31 11:58:54;;;;;;;3.87;3.08;;;;;;;10.16;92.01;98503.58;1511626;93;21048;-91
2022/12/31 12:01:34;;;;;;;2.98;2.58;;;;;;;10.24;92.14;98501.31;1506999;92;21189;-93
2022/12/31 12:04:02;;;;;;;3.72;3.25;;;;;;;10.30;92.08;98511.38;1504978;93;21033;-84
2022/12/31 12:06:31;;;;;;;4.80;3.58;;;;;;;10.33;91.93;98508.56;1503223;93;21050;-89
2022/12/31 12:09:03;;;;;;;5.05;2.98;;;;;;;10.36;92.06;98518.80;1499939;93;21030;-94
2022/12/31 12:11:34;;;;;;;2.58;2.17;;;;;;;10.42;91.97;98522.33;1503246;93;21088;-90
2022/12/31 12:14:22;;;;;;;3.40;2.27;;;;;;;10.42;91.90;98517.11;1482191;94;21069;-86
2022/12/31 12:16:56;;;;;;;5.00;2.10;;;;;;;10.46;92.10;98526.40;1501828;93;21056;-85
2022/12/31 12:19:28;;;;;;;2.55;1.90;;;;;;;10.43;92.05;98521.38;1501000;93;21129;-94
2022/12/31 12:21:55;;;;;;;3.25;2.35;;;;;;;10.44;92.00;98507.39;1646295;85;21056;-91
2022/12/31 12:24:26;;;;;;;3.25;2.17;;;;;;;10.27;91.72;98481.58;1640272;85;21406;-89
2022/12/31 12:26:53;;;;;;;3.02;2.10;;;;;;;10.38;92.07;98499.97;1643389;85;20982;-85
2022/12/31 12:29:35;;;;;;;3.12;2.10;;;;;;;10.38;92.04;98502.58;1608523;86;21883;-88
2022/12/31 12:32:19;;;;;;;3.55;2.67;;;;;;;10.35;92.16;98500.17;1600572;87;21586;-87
2022/12/31 12:34:46;;;;;;;3.42;2.75;;;;;;;10.29;91.93;98497.98;1583004;87;21003;-88
2022/12/31 12:37:34;;;;;;;2.70;2.42;;;;;;;10.21;91.94;98500.21;1605994;87;21078;-82
2022/12/31 12:40:20;;;;;;;3.02;2.17;;;;;;;10.15;91.73;98504.53;1609014;87;21055;-83
2022/12/31 12:42:52;;;;;;;2.92;2.65;;;;;;;10.10;92.05;98503.52;1608956;87;21051;-84